createdAt,value
2018-01-31T01:52:22.826Z,89.96
2018-01-31T01:53:22.743Z,90.43
2018-01-31T01:54:22.659Z,90.62
2018-01-31T01:55:22.575Z,91.00
2018-01-31T01:56:22.507Z,90.72
2018-01-31T01:57:22.410Z,90.05
2018-01-31T01:58:22.327Z,90.15
2018-01-31T01:59:22.240Z,90.53
2018-01-31T02:00:22.167Z,90.05
2018-01-31T02:01:22.076Z,90.72
2018-01-31T02:02:21.990Z,90.81
2018-01-31T02:03:21.907Z,89.96
2018-01-31T02:04:21.827Z,89.96
2018-01-31T02:05:21.741Z,90.24
2018-01-31T02:06:21.676Z,90.05
2018-01-31T02:07:21.570Z,90.05
2018-01-31T02:08:21.489Z,90.24
2018-01-31T02:09:21.404Z,90.24
2018-01-31T02:10:21.320Z,89.96
2018-01-31T02:11:21.237Z,90.24
2018-01-31T02:12:21.154Z,90.24
2018-01-31T02:13:21.070Z,89.86
2018-01-31T02:14:20.985Z,90.62
2018-01-31T02:15:20.911Z,89.86
2018-01-31T02:16:20.818Z,90.19
2018-01-31T02:17:20.736Z,90.24
2018-01-31T02:18:20.653Z,90.19
2018-01-31T02:19:20.568Z,89.96
2018-01-31T02:20:20.720Z,90.62
2018-01-31T02:21:20.401Z,90.91
2018-01-31T02:22:20.319Z,90.72
2018-01-31T02:23:20.234Z,90.72
2018-01-31T02:24:20.151Z,90.81
2018-01-31T02:25:20.068Z,90.91
2018-01-31T02:26:19.986Z,90.72
2018-01-31T02:27:19.902Z,90.81
2018-01-31T02:28:19.817Z,90.72
2018-01-31T02:29:19.735Z,91.76
2018-01-31T02:30:19.699Z,91.76
2018-01-31T02:31:19.574Z,91.76
2018-01-31T02:32:19.492Z,91.85
2018-01-31T02:33:19.399Z,92.04
2018-01-31T02:34:19.318Z,91.09
2018-01-31T02:35:19.228Z,91.76
2018-01-31T02:36:19.146Z,91.47
2018-01-31T02:37:19.076Z,91.66
2018-01-31T02:38:18.985Z,92.04
2018-01-31T02:39:18.895Z,91.76
2018-01-31T02:40:18.812Z,91.85
2018-01-31T02:41:18.728Z,91.66
2018-01-31T02:42:18.643Z,91.47
2018-01-31T02:43:18.563Z,91.66
2018-01-31T02:44:18.478Z,91.57
2018-01-31T02:45:18.394Z,91.85
2018-01-31T02:46:18.312Z,91.47
2018-01-31T02:47:18.224Z,91.38
2018-01-31T02:48:18.142Z,91.38
2018-01-31T02:49:18.071Z,91.76
2018-01-31T02:50:17.974Z,91.66
2018-01-31T02:51:17.893Z,91.95
2018-01-31T02:52:17.807Z,91.85
2018-01-31T02:53:17.723Z,91.66
2018-01-31T02:54:17.661Z,92.14
2018-01-31T02:55:17.553Z,92.14
2018-01-31T02:56:17.473Z,92.33
2018-01-31T02:57:17.392Z,91.57
2018-01-31T02:58:17.311Z,92.33
2018-01-31T02:59:17.223Z,92.14
2018-01-31T03:00:17.135Z,91.85
2018-01-31T03:01:17.055Z,92.33
2018-01-31T03:02:16.982Z,92.61
2018-01-31T03:03:16.886Z,92.14
2018-01-31T03:04:16.799Z,92.14
2018-01-31T03:05:16.719Z,91.57
2018-01-31T03:06:16.635Z,91.57
2018-01-31T03:07:16.552Z,91.57
2018-01-31T03:08:16.467Z,92.14
2018-01-31T03:09:16.382Z,92.33
2018-01-31T03:10:16.299Z,92.33
2018-01-31T03:11:16.214Z,92.14
2018-01-31T03:12:16.137Z,92.23
2018-01-31T03:13:16.061Z,92.14
2018-01-31T03:14:15.965Z,92.42
2018-01-31T03:15:15.880Z,92.71
2018-01-31T03:16:15.794Z,92.23
2018-01-31T03:17:15.710Z,92.90
2018-01-31T03:18:15.632Z,93.56
2018-01-31T03:19:15.545Z,93.46
2018-01-31T03:20:15.462Z,94.32
2018-01-31T03:21:15.374Z,93.94
2018-01-31T03:22:15.291Z,93.84
2018-01-31T03:23:15.215Z,94.32
2018-01-31T03:24:15.129Z,93.65
2018-01-31T03:25:15.040Z,94.04
2018-01-31T03:26:14.957Z,93.75
2018-01-31T03:27:14.873Z,94.13
2018-01-31T03:28:14.789Z,94.42
2018-01-31T03:29:14.705Z,93.94
2018-01-31T03:30:14.625Z,93.56
2018-01-31T03:31:14.550Z,93.75
2018-01-31T03:32:14.498Z,93.75
2018-01-31T03:33:14.370Z,94.23
2018-01-31T03:34:14.283Z,94.13
2018-01-31T03:35:14.200Z,94.13
2018-01-31T03:36:14.116Z,94.32
2018-01-31T03:37:14.033Z,94.23
2018-01-31T03:38:13.950Z,94.51
2018-01-31T03:39:13.866Z,94.98
2018-01-31T03:40:13.778Z,94.70
2018-01-31T03:41:13.704Z,94.79
2018-01-31T03:42:13.610Z,94.60
2018-01-31T03:43:13.526Z,94.13
2018-01-31T03:44:13.442Z,94.70
2018-01-31T03:45:13.395Z,94.42
2018-01-31T03:46:13.273Z,94.60
2018-01-31T03:47:13.191Z,94.79
2018-01-31T03:48:13.108Z,94.79
2018-01-31T03:49:13.023Z,94.79
2018-01-31T03:50:12.940Z,94.70
2018-01-31T03:51:12.853Z,94.98
2018-01-31T03:52:12.768Z,94.79
2018-01-31T03:53:12.710Z,95.07
2018-01-31T03:54:12.605Z,94.51
2018-01-31T03:55:12.517Z,94.79
2018-01-31T03:56:12.438Z,94.60
2018-01-31T03:57:12.350Z,94.60
2018-01-31T03:58:12.276Z,94.79
2018-01-31T03:59:12.180Z,94.89
2018-01-31T04:00:12.106Z,94.89
2018-01-31T04:01:12.011Z,94.98
2018-01-31T04:02:11.926Z,94.60
2018-01-31T04:03:11.841Z,94.23
2018-01-31T04:04:11.792Z,94.79
2018-01-31T04:05:11.676Z,94.60
2018-01-31T04:06:11.593Z,94.51
2018-01-31T04:07:11.508Z,94.79
2018-01-31T04:08:11.420Z,94.70
2018-01-31T04:09:11.340Z,95.36
2018-01-31T04:10:11.256Z,94.70
2018-01-31T04:11:11.173Z,94.79
2018-01-31T04:12:11.088Z,95.45
2018-01-31T04:13:11.005Z,95.36
2018-01-31T04:14:10.919Z,95.45
2018-01-31T04:15:10.833Z,95.36
2018-01-31T04:16:10.748Z,95.17
2018-01-31T04:17:10.665Z,95.65
2018-01-31T04:18:10.582Z,94.98
2018-01-31T04:19:10.497Z,95.17
2018-01-31T04:20:10.436Z,95.65
2018-01-31T04:21:10.333Z,95.36
2018-01-31T04:22:10.260Z,94.98
2018-01-31T04:23:10.160Z,95.26
2018-01-31T04:24:10.076Z,95.55
2018-01-31T04:25:10.005Z,95.45
2018-01-31T04:26:09.914Z,95.55
2018-01-31T04:27:09.822Z,95.36
2018-01-31T04:28:09.738Z,95.74
2018-01-31T04:29:09.654Z,95.45
2018-01-31T04:30:09.574Z,95.65
2018-01-31T04:31:09.488Z,96.03
2018-01-31T04:32:09.403Z,95.84
2018-01-31T04:33:09.323Z,95.36
2018-01-31T04:34:09.234Z,95.55
2018-01-31T04:35:09.150Z,95.65
2018-01-31T04:36:09.068Z,95.74
2018-01-31T04:37:08.991Z,95.74
2018-01-31T04:38:08.899Z,95.36
2018-01-31T04:39:08.817Z,95.55
2018-01-31T04:40:08.731Z,95.45
2018-01-31T04:41:08.668Z,95.45
2018-01-31T04:42:08.570Z,95.65
2018-01-31T04:43:08.486Z,95.55
2018-01-31T04:44:08.393Z,95.65
2018-01-31T04:45:08.310Z,96.12
2018-01-31T04:46:08.226Z,95.74
2018-01-31T04:47:08.222Z,95.84
2018-01-31T04:48:08.061Z,96.03
2018-01-31T04:49:07.974Z,96.31
2018-01-31T04:50:07.911Z,96.50
2018-01-31T04:51:07.805Z,96.69
2018-01-31T04:52:07.721Z,96.69
2018-01-31T04:53:07.637Z,96.69
2018-01-31T04:54:07.552Z,96.41
2018-01-31T04:55:07.468Z,96.78
2018-01-31T04:56:07.382Z,96.78
2018-01-31T04:57:07.298Z,96.97
2018-01-31T04:58:07.216Z,97.45
2018-01-31T04:59:07.163Z,97.07
2018-01-31T05:00:07.052Z,97.45
2018-01-31T05:01:06.965Z,96.97
2018-01-31T05:02:06.882Z,97.16
2018-01-31T05:03:06.794Z,96.22
2018-01-31T05:04:06.714Z,96.31
2018-01-31T05:05:06.626Z,96.22
2018-01-31T05:06:06.544Z,96.50
2018-01-31T05:07:06.463Z,96.97
2018-01-31T05:08:06.372Z,96.50
2018-01-31T05:09:06.300Z,96.41
2018-01-31T05:10:06.208Z,96.97
2018-01-31T05:11:06.130Z,96.31
2018-01-31T05:12:06.038Z,96.12
2018-01-31T05:13:05.955Z,96.97
2018-01-31T05:14:05.880Z,96.50
2018-01-31T05:15:05.786Z,96.50
2018-01-31T05:16:05.703Z,96.78
2018-01-31T05:17:05.618Z,96.22
2018-01-31T05:18:05.576Z,96.69
2018-01-31T05:19:05.449Z,96.22
2018-01-31T05:20:05.364Z,96.31
2018-01-31T05:21:05.281Z,95.93
2018-01-31T05:22:05.200Z,95.84
2018-01-31T05:23:05.112Z,96.41
2018-01-31T05:24:05.048Z,96.50
2018-01-31T05:25:04.943Z,95.84
2018-01-31T05:26:04.920Z,96.03
2018-01-31T05:27:04.792Z,95.93
2018-01-31T05:28:04.696Z,96.50
2018-01-31T05:29:04.610Z,96.22
2018-01-31T05:30:04.526Z,96.12
2018-01-31T05:31:04.442Z,96.12
2018-01-31T05:32:04.360Z,95.55
2018-01-31T05:33:04.273Z,95.65
2018-01-31T05:34:04.191Z,96.22
2018-01-31T05:35:04.127Z,96.41
2018-01-31T05:36:04.018Z,96.12
2018-01-31T05:37:03.934Z,96.78
2018-01-31T05:38:03.854Z,97.07
2018-01-31T05:39:03.766Z,96.50
2018-01-31T05:40:03.681Z,96.59
2018-01-31T05:41:03.634Z,96.41
2018-01-31T05:42:03.514Z,96.50
2018-01-31T05:43:03.429Z,96.88
2018-01-31T05:44:03.361Z,96.69
2018-01-31T05:45:03.268Z,96.69
2018-01-31T05:46:03.183Z,96.50
2018-01-31T05:47:03.093Z,96.31
2018-01-31T05:48:03.008Z,96.50
2018-01-31T05:49:02.925Z,96.50
2018-01-31T05:50:02.843Z,96.41
2018-01-31T05:51:02.762Z,96.78
2018-01-31T05:52:02.695Z,96.69
2018-01-31T05:53:02.628Z,96.22
2018-01-31T05:54:02.506Z,96.22
2018-01-31T05:55:02.421Z,96.31
2018-01-31T05:56:02.336Z,96.31
2018-01-31T05:57:02.253Z,96.41
2018-01-31T05:58:02.170Z,96.31
2018-01-31T05:59:02.083Z,97.16
2018-01-31T06:00:02.012Z,97.45
2018-01-31T06:01:01.935Z,97.73
2018-01-31T06:02:01.840Z,96.41
2018-01-31T06:03:01.754Z,96.41
2018-01-31T06:04:01.665Z,97.35
2018-01-31T06:05:01.579Z,97.26
2018-01-31T06:06:01.496Z,97.07
2018-01-31T06:07:01.415Z,97.45
2018-01-31T06:08:01.329Z,97.07
2018-01-31T06:09:01.244Z,97.07
2018-01-31T06:10:01.204Z,96.97
2018-01-31T06:11:01.076Z,97.26
2018-01-31T06:12:00.998Z,97.45
2018-01-31T06:13:00.905Z,97.07
2018-01-31T06:14:00.832Z,97.45
2018-01-31T06:15:00.744Z,97.45
2018-01-31T06:16:00.659Z,97.26
2018-01-31T06:17:00.569Z,97.16
2018-01-31T06:18:00.486Z,97.35
2018-01-31T06:19:00.425Z,97.35
2018-01-31T06:20:00.317Z,97.26
2018-01-31T06:21:00.236Z,97.45
2018-01-31T06:22:00.149Z,97.45
2018-01-31T06:23:00.068Z,98.02
2018-01-31T06:23:59.982Z,97.45
2018-01-31T06:24:59.896Z,97.26
2018-01-31T06:25:59.813Z,97.26
2018-01-31T06:26:59.731Z,97.73
2018-01-31T06:27:59.648Z,96.97
2018-01-31T06:28:59.560Z,97.45
2018-01-31T06:29:59.478Z,97.16
2018-01-31T06:30:59.392Z,97.35
2018-01-31T06:31:59.320Z,97.45
2018-01-31T06:32:59.229Z,97.45
2018-01-31T06:33:59.141Z,97.45
2018-01-31T06:34:59.060Z,97.26
2018-01-31T06:35:58.972Z,96.97
2018-01-31T06:36:58.905Z,96.31
2018-01-31T06:37:58.809Z,97.07
2018-01-31T06:38:58.727Z,96.22
2018-01-31T06:39:58.638Z,96.97
2018-01-31T06:40:58.553Z,97.07
2018-01-31T06:41:58.480Z,97.26
2018-01-31T06:42:58.387Z,97.07
2018-01-31T06:43:58.305Z,97.16
2018-01-31T06:44:58.237Z,96.97
2018-01-31T06:45:58.149Z,97.16
2018-01-31T06:46:58.058Z,97.35
2018-01-31T06:47:57.968Z,97.35
2018-01-31T06:48:57.884Z,97.64
2018-01-31T06:49:57.799Z,97.45
2018-01-31T06:50:57.715Z,97.83
2018-01-31T06:51:57.631Z,98.02
2018-01-31T06:52:57.546Z,97.64
2018-01-31T06:53:57.464Z,98.39
2018-01-31T06:54:57.377Z,98.02
2018-01-31T06:55:57.295Z,98.21
2018-01-31T06:56:57.212Z,98.58
2018-01-31T06:57:57.127Z,97.73
2018-01-31T06:58:57.041Z,97.64
2018-01-31T06:59:56.959Z,98.77
2018-01-31T07:00:56.882Z,98.58
2018-01-31T07:01:56.790Z,98.58
2018-01-31T07:02:56.709Z,99.44
2018-01-31T07:03:56.626Z,98.96
2018-01-31T07:04:56.540Z,98.68
2018-01-31T07:05:56.470Z,98.11
2018-01-31T07:06:56.370Z,98.39
2018-01-31T07:07:56.293Z,98.77
2018-01-31T07:08:56.204Z,98.30
2018-01-31T07:09:56.119Z,98.77
2018-01-31T07:10:56.036Z,98.39
2018-01-31T07:11:55.953Z,98.21
2018-01-31T07:12:55.865Z,98.30
2018-01-31T07:13:55.786Z,98.30
2018-01-31T07:14:55.711Z,98.30
2018-01-31T07:15:55.617Z,98.11
2018-01-31T07:16:55.534Z,98.11
2018-01-31T07:17:55.452Z,97.92
2018-01-31T07:18:55.364Z,97.73
2018-01-31T07:19:55.297Z,97.83
2018-01-31T07:20:55.196Z,97.83
2018-01-31T07:21:55.133Z,98.30
2018-01-31T07:22:55.027Z,98.11
2018-01-31T07:23:54.943Z,97.83
2018-01-31T07:24:54.859Z,97.92
2018-01-31T07:25:54.774Z,97.73
2018-01-31T07:26:54.691Z,97.92
2018-01-31T07:27:54.613Z,97.64
2018-01-31T07:28:54.546Z,97.64
2018-01-31T07:29:54.441Z,97.83
2018-01-31T07:30:54.356Z,98.02
2018-01-31T07:31:54.273Z,97.73
2018-01-31T07:32:54.186Z,97.92
2018-01-31T07:33:54.103Z,97.73
2018-01-31T07:34:54.019Z,97.83
2018-01-31T07:35:53.937Z,97.54
2018-01-31T07:36:53.865Z,97.35
2018-01-31T07:37:53.771Z,97.64
2018-01-31T07:38:53.684Z,97.92
2018-01-31T07:39:53.603Z,97.54
2018-01-31T07:40:53.516Z,97.73
2018-01-31T07:41:53.431Z,98.11
2018-01-31T07:42:53.350Z,97.73
2018-01-31T07:43:53.265Z,97.35
2018-01-31T07:44:53.181Z,97.83
2018-01-31T07:45:53.100Z,97.45
2018-01-31T07:46:53.034Z,97.73
2018-01-31T07:47:52.930Z,97.54
2018-01-31T07:48:52.847Z,98.21
2018-01-31T07:49:52.764Z,98.02
2018-01-31T07:50:52.678Z,97.64
2018-01-31T07:51:52.594Z,98.02
2018-01-31T07:52:52.542Z,97.83
2018-01-31T07:53:52.429Z,98.11
2018-01-31T07:54:52.346Z,98.02
2018-01-31T07:55:52.262Z,98.21
2018-01-31T07:56:52.195Z,97.40
2018-01-31T07:57:52.093Z,97.64
2018-01-31T07:58:52.010Z,97.69
2018-01-31T07:59:51.951Z,97.69
2018-01-31T08:00:51.842Z,97.78
2018-01-31T08:01:51.760Z,97.69
2018-01-31T08:02:51.726Z,97.54
2018-01-31T08:03:51.597Z,97.88
2018-01-31T08:04:51.533Z,97.12
2018-01-31T08:05:51.423Z,97.31
2018-01-31T08:06:51.339Z,97.12
2018-01-31T08:07:51.252Z,97.40
2018-01-31T08:08:51.174Z,97.40
2018-01-31T08:09:51.091Z,97.02
2018-01-31T08:10:51.003Z,97.12
2018-01-31T08:11:50.922Z,96.36
2018-01-31T08:12:50.836Z,96.36
2018-01-31T08:13:50.753Z,97.12
2018-01-31T08:14:50.670Z,96.83
2018-01-31T08:15:50.586Z,96.45
2018-01-31T08:16:50.503Z,96.36
2018-01-31T08:17:50.421Z,97.21
2018-01-31T08:18:50.336Z,97.50
2018-01-31T08:19:50.253Z,97.31
2018-01-31T08:20:50.174Z,97.50
2018-01-31T08:21:50.084Z,97.02
2018-01-31T08:22:50.007Z,96.73
2018-01-31T08:23:49.917Z,96.73
2018-01-31T08:24:49.839Z,96.73
2018-01-31T08:25:49.752Z,96.92
2018-01-31T08:26:49.665Z,96.92
2018-01-31T08:27:49.680Z,97.31
2018-01-31T08:28:49.499Z,97.59
2018-01-31T08:29:49.418Z,96.55
2018-01-31T08:30:49.335Z,97.59
2018-01-31T08:31:49.250Z,96.55
2018-01-31T08:32:49.167Z,97.31
2018-01-31T08:33:49.083Z,97.21
2018-01-31T08:34:49.005Z,97.59
2018-01-31T08:35:48.913Z,97.12
2018-01-31T08:36:48.832Z,97.02
2018-01-31T08:37:48.749Z,97.21
2018-01-31T08:38:48.664Z,97.02
2018-01-31T08:39:48.580Z,96.45
2018-01-31T08:40:48.497Z,96.36
2018-01-31T08:41:48.418Z,96.64
2018-01-31T08:42:48.333Z,97.12
2018-01-31T08:43:48.245Z,97.12
2018-01-31T08:44:48.165Z,97.31
2018-01-31T08:45:48.079Z,97.50
2018-01-31T08:46:48.005Z,97.02
2018-01-31T08:47:47.913Z,97.12
2018-01-31T08:48:47.840Z,96.73
2018-01-31T08:49:47.747Z,96.45
2018-01-31T08:50:47.663Z,96.17
2018-01-31T08:51:47.584Z,97.02
2018-01-31T08:52:47.495Z,96.45
2018-01-31T08:53:47.413Z,96.55
2018-01-31T08:54:47.345Z,96.45
2018-01-31T08:55:47.247Z,96.26
2018-01-31T08:56:47.164Z,96.55
2018-01-31T08:57:47.095Z,96.83
2018-01-31T08:58:46.999Z,96.55
2018-01-31T08:59:46.912Z,96.64
2018-01-31T09:00:46.843Z,96.59
2018-01-31T09:01:46.745Z,96.78
2018-01-31T09:02:46.666Z,96.88
2018-01-31T09:03:46.580Z,96.97
2018-01-31T09:04:46.499Z,96.31
2018-01-31T09:05:46.414Z,96.97
2018-01-31T09:06:46.334Z,96.69
2018-01-31T09:07:46.246Z,96.97
2018-01-31T09:08:46.170Z,97.17
2018-01-31T09:09:46.099Z,96.97
2018-01-31T09:10:45.997Z,96.31
2018-01-31T09:11:45.916Z,96.31
2018-01-31T09:12:45.858Z,96.31
2018-01-31T09:13:45.749Z,96.41
2018-01-31T09:14:45.666Z,96.22
2018-01-31T09:15:45.584Z,96.41
2018-01-31T09:16:45.500Z,96.12
2018-01-31T09:17:45.419Z,96.59
2018-01-31T09:18:45.336Z,96.69
2018-01-31T09:19:45.252Z,96.22
2018-01-31T09:20:45.180Z,96.41
2018-01-31T09:21:45.086Z,96.50
2018-01-31T09:22:45.015Z,95.46
2018-01-31T09:23:47.727Z,95.65
2018-01-31T09:24:44.839Z,95.27
2018-01-31T09:25:44.754Z,95.55
2018-01-31T09:26:44.673Z,95.65
2018-01-31T09:27:44.593Z,95.36
2018-01-31T09:28:44.509Z,95.60
2018-01-31T09:29:44.423Z,95.41
2018-01-31T09:30:44.343Z,95.12
2018-01-31T09:31:44.256Z,95.12
2018-01-31T09:32:44.176Z,94.84
2018-01-31T09:33:44.094Z,95.51
2018-01-31T09:34:44.010Z,95.70
2018-01-31T09:35:43.927Z,95.51
2018-01-31T09:36:43.848Z,95.51
2018-01-31T09:37:43.762Z,95.03
2018-01-31T09:38:43.692Z,95.03
2018-01-31T09:39:43.597Z,94.65
2018-01-31T09:40:43.514Z,94.74
2018-01-31T09:41:43.431Z,94.93
2018-01-31T09:42:43.347Z,94.65
2018-01-31T09:43:43.265Z,94.84
2018-01-31T09:44:43.186Z,94.84
2018-01-31T09:45:43.101Z,94.74
2018-01-31T09:46:43.018Z,95.22
2018-01-31T09:47:42.987Z,93.84
2018-01-31T09:48:42.854Z,94.23
2018-01-31T09:49:42.773Z,94.03
2018-01-31T09:50:42.700Z,93.65
2018-01-31T09:51:42.609Z,93.75
2018-01-31T09:52:42.528Z,93.65
2018-01-31T09:53:42.453Z,93.84
2018-01-31T09:54:42.360Z,93.65
2018-01-31T09:55:42.276Z,93.27
2018-01-31T09:56:42.213Z,92.80
2018-01-31T09:57:42.114Z,93.08
2018-01-31T09:58:42.031Z,93.08
2018-01-31T09:59:41.950Z,92.42
2018-01-31T10:00:41.869Z,92.46
2018-01-31T10:01:41.787Z,92.32
2018-01-31T10:02:41.707Z,92.08
2018-01-31T10:03:41.624Z,92.18
2018-01-31T10:04:41.555Z,90.85
2018-01-31T10:05:41.458Z,90.75
2018-01-31T10:06:41.375Z,89.71
2018-01-31T10:07:41.293Z,89.52
2018-01-31T10:08:41.215Z,89.23
2018-01-31T10:09:41.129Z,88.67
2018-01-31T10:10:41.046Z,87.71
2018-01-31T10:11:40.985Z,88.09
2018-01-31T10:12:40.888Z,86.90
2018-01-31T10:13:40.804Z,86.99
2018-01-31T10:14:40.729Z,87.14
2018-01-31T10:15:40.642Z,86.33
2018-01-31T10:16:40.557Z,86.33
2018-01-31T10:17:40.481Z,86.05
2018-01-31T10:18:40.413Z,85.47
2018-01-31T10:19:40.324Z,85.10
2018-01-31T10:20:40.238Z,84.81
2018-01-31T10:21:40.154Z,84.72
2018-01-31T10:22:40.093Z,84.72
2018-01-31T10:23:39.992Z,83.86
2018-01-31T10:24:39.929Z,83.95
2018-01-31T10:25:39.828Z,84.33
2018-01-31T10:26:39.764Z,84.43
2018-01-31T10:27:39.664Z,84.24
2018-01-31T10:28:39.584Z,83.58
2018-01-31T10:29:39.504Z,83.62
2018-01-31T10:30:39.424Z,83.52
2018-01-31T10:31:39.347Z,84.19
2018-01-31T10:32:39.265Z,84.19
2018-01-31T10:33:39.198Z,83.14
2018-01-31T10:34:39.098Z,82.67
2018-01-31T10:35:39.018Z,82.48
2018-01-31T10:36:38.940Z,82.76
2018-01-31T10:37:38.858Z,82.95
2018-01-31T10:38:38.776Z,82.00
2018-01-31T10:39:38.699Z,82.95
2018-01-31T10:40:38.617Z,83.04
2018-01-31T10:41:38.536Z,82.09
2018-01-31T10:42:38.455Z,81.90
2018-01-31T10:43:38.374Z,82.09
2018-01-31T10:44:38.293Z,82.28
2018-01-31T10:45:38.216Z,82.57
2018-01-31T10:46:38.137Z,82.38
2018-01-31T10:47:38.054Z,81.95
2018-01-31T10:48:37.975Z,80.99
2018-01-31T10:49:37.893Z,80.60
2018-01-31T10:50:37.811Z,77.83
2018-01-31T10:51:37.733Z,74.96
2018-01-31T10:52:37.657Z,71.78
2018-01-31T10:57:37.260Z,67.55
2018-01-31T10:58:37.181Z,67.87
2018-01-31T10:59:37.102Z,68.06
2018-01-31T11:00:37.028Z,67.97
2018-01-31T11:01:36.947Z,67.97
2018-01-31T11:02:36.870Z,67.93
2018-01-31T11:03:36.792Z,69.11
2018-01-31T11:04:36.715Z,66.60
2018-01-31T11:05:36.644Z,64.12
2018-01-31T11:06:36.558Z,64.85
2018-01-31T11:07:36.492Z,65.48
2018-01-31T11:08:36.404Z,66.31
2018-01-31T11:09:36.328Z,67.07
2018-01-31T11:10:36.254Z,67.80
2018-01-31T11:11:36.173Z,67.90
2018-01-31T11:12:36.098Z,67.80
2018-01-31T11:13:36.022Z,68.28
2018-01-31T11:14:35.944Z,68.82
2018-01-31T11:15:35.869Z,68.82
2018-01-31T11:16:35.800Z,68.15
2018-01-31T11:17:35.712Z,69.20
2018-01-31T11:18:35.634Z,70.44
2018-01-31T11:19:35.555Z,69.39
2018-01-31T11:20:35.478Z,69.48
2018-01-31T11:21:35.403Z,68.91
2018-01-31T11:22:35.322Z,67.99
2018-01-31T11:23:35.246Z,67.99
2018-01-31T11:24:35.170Z,68.18
2018-01-31T11:25:35.091Z,68.12
2018-01-31T11:26:35.012Z,67.52
2018-01-31T11:27:34.947Z,67.99
2018-01-31T11:28:34.860Z,67.55
2018-01-31T11:29:34.791Z,67.65
2018-01-31T11:30:34.705Z,67.14
2018-01-31T11:31:34.628Z,67.42
2018-01-31T11:32:34.551Z,67.52
2018-01-31T11:33:34.473Z,67.90
2018-01-31T11:34:34.394Z,67.71
2018-01-31T11:35:34.319Z,67.96
2018-01-31T11:36:34.241Z,67.86
2018-01-31T11:37:34.163Z,68.57
2018-01-31T11:38:34.099Z,67.90
2018-01-31T11:39:34.011Z,68.09
2018-01-31T11:40:33.932Z,68.03
2018-01-31T11:41:33.873Z,65.67
2018-01-31T11:42:33.779Z,64.62
2018-01-31T11:43:33.702Z,65.64
2018-01-31T11:44:33.622Z,65.64
2018-01-31T11:45:33.548Z,65.45
2018-01-31T11:46:33.470Z,65.55
2018-01-31T11:47:33.404Z,66.02
2018-01-31T11:48:33.321Z,66.50
2018-01-31T11:49:33.253Z,67.55
2018-01-31T11:50:33.170Z,67.17
2018-01-31T11:51:33.090Z,66.78
2018-01-31T11:52:33.014Z,67.61
2018-01-31T11:53:32.935Z,67.83
2018-01-31T11:54:32.856Z,67.99
2018-01-31T11:55:32.782Z,66.85
2018-01-31T11:56:32.708Z,67.61
2018-01-31T11:57:32.628Z,67.99
2018-01-31T11:58:32.551Z,68.05
2018-01-31T11:59:32.478Z,68.15
2018-01-31T12:00:32.413Z,68.53
2018-01-31T12:01:32.321Z,68.63
2018-01-31T12:02:32.247Z,68.91
2018-01-31T12:03:32.167Z,68.85
2018-01-31T12:04:32.103Z,68.66
2018-01-31T12:05:32.024Z,68.38
2018-01-31T12:06:31.937Z,67.80
2018-01-31T12:07:31.860Z,67.65
2018-01-31T12:08:31.782Z,67.07
2018-01-31T12:09:31.708Z,66.98
2018-01-31T12:10:31.636Z,67.04
2018-01-31T12:11:31.552Z,67.71
2018-01-31T12:12:31.475Z,67.52
2018-01-31T12:13:31.400Z,68.28
2018-01-31T12:14:31.321Z,68.66
2018-01-31T12:15:31.243Z,68.91
2018-01-31T12:16:31.184Z,68.28
2018-01-31T12:17:31.093Z,69.04
2018-01-31T12:18:31.012Z,69.23
2018-01-31T12:19:30.933Z,69.23
2018-01-31T12:20:30.861Z,67.71
2018-01-31T12:21:30.779Z,67.71
2018-01-31T12:22:30.707Z,67.42
2018-01-31T12:23:30.627Z,66.69
2018-01-31T12:24:30.561Z,66.12
2018-01-31T12:25:30.471Z,66.18
2018-01-31T12:26:30.396Z,66.28
2018-01-31T12:27:30.320Z,67.33
2018-01-31T12:28:30.242Z,67.39
2018-01-31T12:29:30.166Z,67.48
2018-01-31T12:30:30.086Z,67.86
2018-01-31T12:31:30.012Z,68.63
2018-01-31T12:32:29.936Z,68.76
2018-01-31T12:33:29.863Z,67.93
2018-01-31T12:34:29.776Z,63.89
2018-01-31T12:35:29.700Z,61.47
2018-01-31T12:36:29.621Z,58.56
2018-01-31T12:37:29.548Z,55.91
2018-01-31T12:38:29.474Z,54.12
2018-01-31T12:39:29.394Z,53.02
2018-01-31T12:40:29.319Z,54.07
2018-01-31T12:41:29.245Z,54.43
2018-01-31T12:42:29.167Z,56.05
2018-01-31T12:43:29.095Z,56.50
2018-01-31T12:44:29.018Z,56.40
2018-01-31T12:45:28.948Z,57.59
2018-01-31T12:46:28.868Z,59.22
2018-01-31T12:47:28.802Z,60.81
2018-01-31T12:48:28.740Z,60.90
2018-01-31T12:49:28.644Z,61.41
2018-01-31T12:50:28.571Z,61.06
2018-01-31T12:51:28.495Z,59.56
2018-01-31T12:52:28.424Z,58.38
2018-01-31T12:53:28.350Z,58.76
2018-01-31T12:54:28.273Z,59.59
2018-01-31T12:55:28.196Z,60.17
2018-01-31T12:56:28.121Z,60.93
2018-01-31T12:57:28.050Z,61.95
2018-01-31T12:58:27.971Z,61.95
2018-01-31T12:59:27.897Z,61.95
2018-01-31T13:00:27.822Z,62.88
2018-01-31T13:01:27.749Z,63.35
2018-01-31T13:02:27.694Z,64.21
2018-01-31T13:03:27.611Z,64.75
2018-01-31T13:04:27.521Z,64.75
2018-01-31T13:05:27.446Z,65.52
2018-01-31T13:06:27.373Z,65.99
2018-01-31T13:07:27.297Z,66.82
2018-01-31T13:08:27.220Z,67.00
2018-01-31T13:09:27.142Z,67.29
2018-01-31T13:10:27.067Z,67.48
2018-01-31T13:11:26.989Z,67.64
2018-01-31T13:12:26.912Z,68.53
2018-01-31T13:13:26.837Z,68.63
2018-01-31T13:14:26.757Z,68.53
2018-01-31T13:15:26.688Z,68.91
2018-01-31T13:16:26.607Z,68.21
2018-01-31T13:17:26.529Z,68.15
2018-01-31T13:18:41.280Z,68.24
2018-01-31T13:19:26.370Z,68.18
2018-01-31T13:20:26.307Z,67.80
2018-01-31T13:21:26.221Z,67.71
2018-01-31T13:22:26.140Z,67.33
2018-01-31T13:23:26.061Z,66.85
2018-01-31T13:24:25.996Z,67.07
2018-01-31T13:25:25.942Z,66.50
2018-01-31T13:26:25.832Z,65.74
2018-01-31T13:27:25.751Z,65.74
2018-01-31T13:28:25.675Z,65.07
2018-01-31T13:29:25.598Z,65.33
2018-01-31T13:30:25.532Z,65.33
2018-01-31T13:31:25.446Z,65.36
2018-01-31T13:32:25.365Z,65.64
2018-01-31T13:33:25.289Z,66.02
2018-01-31T13:34:25.214Z,66.31
2018-01-31T13:35:25.152Z,66.12
2018-01-31T13:36:25.059Z,65.36
2018-01-31T13:37:24.983Z,65.55
2018-01-31T13:38:24.904Z,65.17
2018-01-31T13:39:24.830Z,65.52
2018-01-31T13:40:24.753Z,66.38
2018-01-31T13:41:24.673Z,65.99
2018-01-31T13:42:24.595Z,66.38
2018-01-31T13:43:24.520Z,66.09
2018-01-31T13:44:24.442Z,66.09
2018-01-31T13:45:24.364Z,66.85
2018-01-31T13:46:24.306Z,66.85
2018-01-31T13:47:24.224Z,67.52
2018-01-31T13:48:24.135Z,67.52
2018-01-31T13:49:24.058Z,67.71
2018-01-31T13:50:23.977Z,67.86
2018-01-31T13:51:23.901Z,67.86
2018-01-31T13:52:23.829Z,68.53
2018-01-31T13:53:23.747Z,68.72
2018-01-31T13:54:23.698Z,69.01
2018-01-31T13:55:23.595Z,68.72
2018-01-31T13:56:23.526Z,68.24
2018-01-31T13:57:23.441Z,68.91
2018-01-31T13:58:23.377Z,68.91
2018-01-31T13:59:23.279Z,68.82
2018-01-31T14:00:23.203Z,69.68
2018-01-31T14:01:23.124Z,69.20
2018-01-31T14:02:23.044Z,70.34
2018-01-31T14:03:22.984Z,70.34
2018-01-31T14:04:22.889Z,69.29
2018-01-31T14:05:22.814Z,69.68
2018-01-31T14:06:22.731Z,69.48
2018-01-31T14:07:22.653Z,69.48
2018-01-31T14:08:22.577Z,69.48
2018-01-31T14:09:22.500Z,70.25
2018-01-31T14:10:22.417Z,69.48
2018-01-31T14:11:22.338Z,69.10
2018-01-31T14:12:22.262Z,69.48
2018-01-31T14:13:22.192Z,69.10
2018-01-31T14:14:22.103Z,69.29
2018-01-31T14:15:22.026Z,69.20
2018-01-31T14:16:21.976Z,69.26
2018-01-31T14:17:21.871Z,69.17
2018-01-31T14:18:21.791Z,69.45
2018-01-31T14:19:21.713Z,70.12
2018-01-31T14:20:21.633Z,70.31
2018-01-31T14:21:21.554Z,69.93
2018-01-31T14:22:21.474Z,69.74
2018-01-31T14:23:21.397Z,69.35
2018-01-31T14:24:21.323Z,69.93
2018-01-31T14:25:21.238Z,70.40
2018-01-31T14:26:21.163Z,70.12
2018-01-31T14:27:21.083Z,70.40
2018-01-31T14:28:21.003Z,70.12
2018-01-31T14:29:20.925Z,70.40
2018-01-31T14:30:20.845Z,70.78
2018-01-31T14:31:20.768Z,70.69
2018-01-31T14:32:20.715Z,70.12
2018-01-31T14:33:20.629Z,70.50
2018-01-31T14:34:20.530Z,70.31
2018-01-31T14:35:20.456Z,71.26
2018-01-31T14:36:20.372Z,71.26
2018-01-31T14:37:20.292Z,70.97
2018-01-31T14:38:20.213Z,71.64
2018-01-31T14:39:20.137Z,70.88
2018-01-31T14:40:20.067Z,71.17
2018-01-31T14:41:19.981Z,70.97
2018-01-31T14:42:19.932Z,71.64
2018-01-31T14:43:19.820Z,72.02
2018-01-31T14:44:19.744Z,71.93
2018-01-31T14:45:19.664Z,71.55
2018-01-31T14:46:19.582Z,72.31
2018-01-31T14:47:19.504Z,72.41